Time;durP1;ratioP1;P1;durP2;ratioP2;P2;SDS_P1;SDS_P2;PMS_P1;PMS_P2;Temp;Humidity;BMP_temperature;BMP_pressure;BME280_temperature;BME280_humidity;BME280_pressure;Samples;Min_cycle;Max_cycle;Signal;HPM_P1;HPM_P2
2023/08/11 00:09:29;;;;;;;37.25;33.25;;;13.80;99.90;;;;;;25587738;23;20172;-50
2023/08/11 00:19:31;;;;;;;31.23;27.98;;;13.90;99.90;;;;;;25586354;23;20433;-51
2023/08/11 00:29:33;;;;;;;29.67;26.67;;;14.20;99.90;;;;;;25585924;23;20313;-51
2023/08/11 00:39:35;;;;;;;25.77;23.17;;;14.40;99.90;;;;;;25586090;23;20073;-52
2023/08/11 00:49:38;;;;;;;24.08;21.63;;;14.50;99.90;;;;;;25585693;23;20325;-50
2023/08/11 00:59:40;;;;;;;22.20;20.00;;;14.60;99.90;;;;;;25585809;23;20060;-53
2023/08/11 01:10:12;;;;;;;22.17;20.02;;;14.70;99.90;;;;;;25590714;23;20009;-51
2023/08/11 01:20:16;;;;;;;20.63;18.60;;;14.70;99.90;;;;;;25214855;23;20042;-49
2023/08/11 01:30:18;;;;;;;20.15;16.83;;;14.80;99.90;;;;;;25214525;23;20010;-51
2023/08/11 01:40:21;;;;;;;19.13;17.30;;;14.90;99.90;;;;;;25189873;23;20030;-49
2023/08/11 01:50:23;;;;;;;16.88;15.32;;;14.90;99.90;;;;;;25298030;23;20009;-50
2023/08/11 02:00:28;;;;;;;16.88;15.27;;;14.90;99.90;;;;;;25591326;23;20001;-50
2023/08/11 02:10:30;;;;;;;18.83;17.02;;;14.90;99.90;;;;;;25590888;23;20341;-52
2023/08/11 02:20:32;;;;;;;18.80;16.95;;;14.90;99.90;;;;;;25590052;23;20005;-49
2023/08/11 02:30:35;;;;;;;19.08;16.55;;;14.90;99.90;;;;;;25589382;23;20008;-51
2023/08/11 02:40:37;;;;;;;22.45;20.10;;;14.90;99.90;;;;;;25588977;23;20017;-50
2023/08/11 02:50:39;;;;;;;17.23;15.57;;;14.90;99.90;;;;;;25562313;23;20009;-50
2023/08/11 03:00:41;;;;;;;19.98;17.98;;;14.90;99.90;;;;;;25588745;23;20021;-50
2023/08/11 03:10:43;;;;;;;20.10;18.20;;;14.90;99.90;;;;;;25587868;23;20009;-51
2023/08/11 03:20:45;;;;;;;20.17;18.05;;;14.80;99.90;;;;;;25562278;23;20429;-49
2023/08/11 03:30:47;;;;;;;21.50;19.30;;;14.70;99.90;;;;;;25586870;23;20001;-48
2023/08/11 03:40:49;;;;;;;18.60;16.73;;;14.70;99.90;;;;;;25586407;23;20024;-53
2023/08/11 03:50:57;;;;;;;20.52;18.42;;;14.70;99.90;;;;;;25559867;23;20016;-52
2023/08/11 04:01:00;;;;;;;21.27;19.08;;;14.70;99.90;;;;;;25628064;23;20016;-52
2023/08/11 04:11:02;;;;;;;21.13;18.92;;;14.90;99.90;;;;;;25558728;23;20437;-53
2023/08/11 04:21:05;;;;;;;16.60;14.60;;;14.70;99.90;;;;;;25585554;23;20001;-47
2023/08/11 04:31:07;;;;;;;13.07;11.85;;;14.70;99.90;;;;;;25558860;23;20005;-49
2023/08/11 04:41:09;;;;;;;15.55;13.95;;;14.80;99.90;;;;;;25588044;23;20017;-53
2023/08/11 04:51:11;;;;;;;12.35;10.45;;;14.60;99.90;;;;;;25566910;23;20338;-51
2023/08/11 05:01:14;;;;;;;11.57;10.38;;;14.50;99.90;;;;;;25595999;23;20017;-52
2023/08/11 05:11:16;;;;;;;14.15;10.93;;;14.10;99.90;;;;;;25594210;23;20005;-50
2023/08/11 05:21:18;;;;;;;13.70;12.30;;;13.80;99.90;;;;;;25592409;23;20005;-49
2023/08/11 05:31:20;;;;;;;14.85;13.23;;;13.70;99.90;;;;;;25592185;23;20009;-50
2023/08/11 05:41:22;;;;;;;15.80;13.88;;;13.60;99.90;;;;;;25590977;23;20017;-48
2023/08/11 05:51:23;;;;;;;23.40;19.13;;;13.70;99.90;;;;;;25591981;23;20005;-49
2023/08/11 06:01:25;;;;;;;23.83;21.33;;;13.90;99.90;;;;;;25591526;23;20016;-51
2023/08/11 06:11:27;;;;;;;23.42;19.83;;;14.20;99.90;;;;;;25590953;23;20569;-50
2023/08/11 06:21:29;;;;;;;18.17;16.38;;;14.50;99.90;;;;;;25592013;23;20005;-53
2023/08/11 06:31:31;;;;;;;13.55;12.25;;;14.80;99.90;;;;;;25590262;23;20376;-48
2023/08/11 06:41:33;;;;;;;12.98;11.60;;;15.40;99.90;;;;;;25590292;23;20067;-52
2023/08/11 06:51:35;;;;;;;10.75;9.75;;;16.10;99.90;;;;;;25591370;23;20005;-48
2023/08/11 07:01:38;;;;;;;11.35;10.00;;;16.80;99.90;;;;;;25590322;23;20356;-50
2023/08/11 07:11:40;;;;;;;11.52;10.45;;;17.50;99.90;;;;;;25585555;23;20380;-50
2023/08/11 07:21:42;;;;;;;10.43;9.30;;;17.60;99.90;;;;;;25588873;23;20008;-53
2023/08/11 07:31:44;;;;;;;8.68;7.80;;;18.20;99.90;;;;;;25586416;23;20020;-52
2023/08/11 07:41:47;;;;;;;8.73;7.95;;;18.70;99.90;;;;;;25586452;23;20079;-48
2023/08/11 07:51:49;;;;;;;9.02;8.18;;;18.60;99.90;;;;;;25586237;23;20009;-51
2023/08/11 08:01:52;;;;;;;8.00;7.20;;;18.60;99.90;;;;;;25586256;23;20001;-54
2023/08/11 08:11:54;;;;;;;8.50;7.72;;;19.10;99.90;;;;;;25585706;23;20044;-54
2023/08/11 08:21:55;;;;;;;6.60;6.00;;;19.60;99.90;;;;;;25558758;23;20013;-55
2023/08/11 08:31:57;;;;;;;7.60;6.80;;;20.10;99.90;;;;;;25585567;23;20147;-55
2023/08/11 08:42:01;;;;;;;5.80;5.22;;;20.80;99.90;;;;;;25586455;23;20021;-55
2023/08/11 08:52:07;;;;;;;8.23;5.95;;;21.50;99.90;;;;;;25583136;23;20016;-55
2023/08/11 09:02:12;;;;;;;7.85;6.97;;;22.00;99.90;;;;;;25625524;23;20077;-56
2023/08/11 09:12:14;;;;;;;6.63;6.10;;;22.10;99.90;;;;;;25584295;23;20009;-57
2023/08/11 09:22:16;;;;;;;7.97;7.22;;;22.80;99.90;;;;;;25584181;23;20004;-57
2023/08/11 09:32:22;;;;;;;6.68;6.13;;;22.80;99.90;;;;;;25590099;23;20067;-53
2023/08/11 09:42:26;;;;;;;6.90;6.30;;;22.80;99.90;;;;;;25599538;23;20515;-51
2023/08/11 09:52:33;;;;;;;7.53;6.82;;;22.70;99.90;;;;;;25592383;23;20028;-55
2023/08/11 10:02:36;;;;;;;7.10;6.00;;;22.90;99.90;;;;;;25590437;23;20004;-55
2023/08/11 10:12:44;;;;;;;7.93;7.00;;;23.00;99.90;;;;;;25590923;23;20372;-55
2023/08/11 10:22:47;;;;;;;10.18;7.20;;;23.50;99.90;;;;;;25630090;23;20005;-57
2023/08/11 10:33:04;;;;;;;7.18;6.20;;;23.80;99.90;;;;;;25561957;23;20711;-56
2023/08/11 10:43:08;;;;;;;8.00;7.25;;;24.00;99.90;;;;;;25594891;23;20460;-57
2023/08/11 10:53:21;;;;;;;8.45;7.65;;;23.70;99.90;;;;;;25588158;23;20498;-57
2023/08/11 11:03:23;;;;;;;7.90;6.38;;;24.30;99.90;;;;;;25613052;23;20001;-55
2023/08/11 11:13:25;;;;;;;8.25;7.55;;;24.20;99.90;;;;;;25588684;23;20009;-50
2023/08/11 11:23:27;;;;;;;6.95;6.32;;;23.60;99.90;;;;;;25587971;23;20437;-57
2023/08/11 11:33:30;;;;;;;6.30;5.70;;;24.60;99.90;;;;;;25589336;23;20016;-54
2023/08/11 11:43:31;;;;;;;6.32;5.63;;;24.30;99.90;;;;;;25587393;23;20012;-57
2023/08/11 11:53:33;;;;;;;6.03;5.50;;;24.00;99.90;;;;;;25587121;23;20009;-57
2023/08/11 12:03:37;;;;;;;5.20;4.70;;;25.40;99.90;;;;;;25588238;23;20009;-56
2023/08/11 12:13:42;;;;;;;6.30;5.70;;;24.30;99.90;;;;;;25561543;23;20499;-57
2023/08/11 12:23:44;;;;;;;6.18;5.57;;;25.50;99.90;;;;;;25586354;23;20437;-59
2023/08/11 12:33:46;;;;;;;6.10;5.50;;;26.60;99.90;;;;;;25585364;23;20009;-59
2023/08/11 12:43:48;;;;;;;6.32;4.32;;;27.80;99.90;;;;;;25586878;23;20017;-59
2023/08/11 12:53:49;;;;;;;5.28;4.78;;;28.30;99.90;;;;;;25560394;23;20036;-59
2023/08/11 13:03:51;;;;;;;6.22;4.50;;;27.90;99.90;;;;;;25589888;23;20001;-59
2023/08/11 13:13:54;;;;;;;11.30;5.70;;;28.50;99.90;;;;;;25593609;23;20005;-59
2023/08/11 13:23:56;;;;;;;6.78;5.20;;;28.40;99.90;;;;;;25594363;23;20009;-59
2023/08/11 13:33:57;;;;;;;5.20;4.70;;;28.30;99.70;;;;;;25592614;23;20013;-59
2023/08/11 13:43:59;;;;;;;4.13;3.72;;;27.70;99.90;;;;;;25592130;23;20024;-59
2023/08/11 13:54:04;;;;;;;4.88;4.45;;;28.10;99.90;;;;;;25592333;23;20044;-59
2023/08/11 14:04:09;;;;;;;4.72;4.22;;;28.20;99.90;;;;;;25589632;23;20063;-59
2023/08/11 14:14:11;;;;;;;4.35;3.78;;;28.00;99.90;;;;;;25590996;23;20504;-59
2023/08/11 14:24:13;;;;;;;4.40;4.00;;;27.90;99.90;;;;;;25590391;23;19997;-59
2023/08/11 14:34:15;;;;;;;6.53;4.43;;;27.50;99.90;;;;;;25591211;23;20005;-59
2023/08/11 14:44:18;;;;;;;5.78;5.10;;;27.40;99.90;;;;;;25590324;23;20012;-59
2023/08/11 14:54:21;;;;;;;6.95;6.00;;;27.30;99.90;;;;;;25588675;23;20009;-59
2023/08/11 15:04:22;;;;;;;4.70;4.30;;;27.10;99.90;;;;;;25590435;23;20005;-57
2023/08/11 15:14:24;;;;;;;6.15;4.40;;;26.20;99.90;;;;;;25587930;23;20016;-57
2023/08/11 15:24:26;;;;;;;5.93;4.28;;;25.30;99.90;;;;;;25587270;23;20005;-55
2023/08/11 15:34:30;;;;;;;6.50;5.03;;;25.50;99.90;;;;;;25586718;23;20376;-54
2023/08/11 15:44:34;;;;;;;4.70;4.30;;;25.50;99.90;;;;;;25463928;23;20009;-55
2023/08/11 15:54:36;;;;;;;4.60;4.18;;;24.80;99.90;;;;;;25463135;23;20040;-57
2023/08/11 16:04:39;;;;;;;5.80;4.38;;;24.40;99.90;;;;;;25462640;23;20006;-57
2023/08/11 16:14:42;;;;;;;6.45;4.57;;;24.60;99.90;;;;;;25461988;23;20005;-57
2023/08/11 16:24:44;;;;;;;4.35;3.95;;;24.00;99.90;;;;;;25463551;23;20005;-56
2023/08/11 16:34:46;;;;;;;7.65;4.78;;;23.30;99.90;;;;;;25463636;23;20048;-53
2023/08/11 16:44:49;;;;;;;7.93;5.90;;;21.80;99.90;;;;;;25635010;23;20012;-54
2023/08/11 16:54:51;;;;;;;12.05;8.32;;;20.40;99.90;;;;;;25593950;23;20016;-52
2023/08/11 17:04:53;;;;;;;16.52;14.77;;;19.20;99.90;;;;;;25593913;23;20008;-49
2023/08/11 17:14:54;;;;;;;12.90;10.88;;;18.50;99.90;;;;;;25593293;23;20024;-53
2023/08/11 17:24:57;;;;;;;15.88;11.32;;;17.80;99.90;;;;;;25592783;23;20008;-50
2023/08/11 17:35:03;;;;;;;14.23;12.70;;;17.30;99.90;;;;;;25592342;23;20020;-49
2023/08/11 17:45:05;;;;;;;22.00;12.70;;;16.90;99.90;;;;;;25633276;23;20056;-50
2023/08/11 17:55:07;;;;;;;13.98;12.57;;;16.60;99.90;;;;;;25591862;23;20009;-49
2023/08/11 18:05:09;;;;;;;14.48;11.75;;;16.30;99.90;;;;;;25592778;23;20023;-52
2023/08/11 18:15:11;;;;;;;13.52;11.48;;;16.00;99.90;;;;;;25591328;23;20306;-52
2023/08/11 18:25:13;;;;;;;10.18;9.05;;;15.70;99.90;;;;;;25592012;23;20124;-47
2023/08/11 18:35:15;;;;;;;7.90;7.18;;;15.70;99.90;;;;;;25590166;23;20016;-50
2023/08/11 18:45:17;;;;;;;10.70;8.02;;;15.30;99.90;;;;;;25590338;23;20075;-48
2023/08/11 18:55:19;;;;;;;12.60;7.78;;;15.10;99.90;;;;;;25589343;23;20060;-48
2023/08/11 19:05:21;;;;;;;7.30;5.60;;;14.90;99.90;;;;;;25590139;23;20009;-49
2023/08/11 19:15:25;;;;;;;7.95;3.20;;;14.70;99.90;;;;;;25588198;23;20333;-47
2023/08/11 19:25:29;;;;;;;6.20;3.85;;;14.50;99.90;;;;;;25587403;23;20080;-46
2023/08/11 19:35:31;;;;;;;5.97;3.60;;;14.60;99.90;;;;;;25587407;23;20040;-50
2023/08/11 19:45:32;;;;;;;54.50;32.20;;;14.60;99.90;;;;;;25588685;23;20071;-49
2023/08/11 19:55:34;;;;;;;2.33;2.00;;;14.50;99.90;;;;;;25585618;23;20009;-50
2023/08/11 20:05:46;;;;;;;1.80;1.67;;;14.30;99.90;;;;;;25585072;23;20012;-50
2023/08/11 20:15:48;;;;;;;2.40;1.95;;;14.20;99.90;;;;;;25600043;23;20075;-49
2023/08/11 20:25:51;;;;;;;12.02;9.73;;;14.00;99.90;;;;;;25584718;23;20036;-47
2023/08/11 20:35:53;;;;;;;6.03;4.30;;;14.10;99.90;;;;;;25583658;23;20449;-51
2023/08/11 20:45:55;;;;;;;31.13;24.63;;;14.10;99.90;;;;;;25585067;23;20503;-49
2023/08/11 20:56:00;;;;;;;12.90;9.73;;;14.20;99.90;;;;;;25584220;23;20032;-50
2023/08/11 21:06:03;;;;;;;15.73;13.48;;;13.90;99.90;;;;;;25583928;23;20001;-48
2023/08/11 21:16:05;;;;;;;13.52;11.48;;;13.70;99.90;;;;;;25584279;23;20032;-48
2023/08/11 21:26:07;;;;;;;26.13;20.00;;;13.60;99.90;;;;;;25588152;23;20333;-51
2023/08/11 21:36:08;;;;;;;17.35;15.30;;;13.60;99.90;;;;;;25591290;23;20507;-49
2023/08/11 21:46:10;;;;;;;38.97;34.33;;;13.70;99.90;;;;;;25591951;23;20001;-47
2023/08/11 21:56:12;;;;;;;28.65;23.33;;;13.70;99.90;;;;;;25591155;23;20016;-47
2023/08/11 22:06:14;;;;;;;18.48;16.15;;;13.60;99.90;;;;;;25591173;23;20009;-51
2023/08/11 22:16:16;;;;;;;25.00;20.42;;;13.60;99.90;;;;;;25591113;23;20051;-48
2023/08/11 22:26:19;;;;;;;19.77;17.33;;;13.40;99.90;;;;;;25591017;23;20012;-46
2023/08/11 22:36:21;;;;;;;13.82;11.55;;;13.30;99.90;;;;;;25589810;23;20432;-51
2023/08/11 22:46:23;;;;;;;7.57;6.72;;;13.20;99.90;;;;;;25590076;23;20005;-47
2023/08/11 22:56:24;;;;;;;5.53;4.70;;;13.10;99.90;;;;;;25589412;23;20009;-49
2023/08/11 23:06:26;;;;;;;5.55;2.92;;;13.00;99.90;;;;;;25591564;23;20047;-50
2023/08/11 23:16:28;;;;;;;5.35;4.70;;;13.10;99.90;;;;;;25588807;23;20412;-47
2023/08/11 23:26:30;;;;;;;6.03;4.88;;;13.30;99.90;;;;;;25588547;23;20005;-47
2023/08/11 23:36:32;;;;;;;5.53;4.97;;;12.90;99.90;;;;;;25587934;23;20001;-52
2023/08/11 23:46:34;;;;;;;5.70;4.80;;;12.90;99.90;;;;;;25589188;23;20012;-48
2023/08/11 23:56:35;;;;;;;5.28;3.80;;;12.70;99.90;;;;;;25587168;23;20016;-48
